createdAt,value
2018-12-27T00:00:56.652Z,932.43
2018-12-27T00:01:56.675Z,932.48
2018-12-27T00:02:56.685Z,932.53
2018-12-27T00:03:56.626Z,932.56
2018-12-27T00:04:56.612Z,932.57
2018-12-27T00:05:56.632Z,932.57
2018-12-27T00:06:56.621Z,932.60
2018-12-27T00:07:56.656Z,932.58
2018-12-27T00:08:56.604Z,932.66
2018-12-27T00:09:56.584Z,932.65
2018-12-27T00:10:56.593Z,932.71
2018-12-27T00:11:56.592Z,932.71
2018-12-27T00:12:56.616Z,932.74
2018-12-27T00:13:56.566Z,932.76
2018-12-27T00:14:56.539Z,932.79
2018-12-27T00:15:56.554Z,932.81
2018-12-27T00:16:56.515Z,932.81
2018-12-27T00:17:56.537Z,932.82
2018-12-27T00:18:56.587Z,932.83
2018-12-27T00:19:56.563Z,932.83
2018-12-27T00:20:56.498Z,932.82
2018-12-27T00:21:56.515Z,932.83
2018-12-27T00:22:56.500Z,932.75
2018-12-27T00:23:56.528Z,932.76
2018-12-27T00:24:56.523Z,932.71
2018-12-27T00:25:56.497Z,932.74
2018-12-27T00:26:56.464Z,932.68
2018-12-27T00:27:56.438Z,932.73
2018-12-27T00:28:56.433Z,932.72
2018-12-27T00:29:56.436Z,932.75
2018-12-27T00:30:56.433Z,932.78
2018-12-27T00:31:56.410Z,932.79
2018-12-27T00:33:02.919Z,932.80
2018-12-27T00:33:56.383Z,932.85
2018-12-27T00:34:56.381Z,932.81
2018-12-27T00:35:56.387Z,932.81
2018-12-27T00:36:57.881Z,932.82
2018-12-27T00:37:56.365Z,932.77
2018-12-27T00:38:56.358Z,932.76
2018-12-27T00:39:56.372Z,932.74
2018-12-27T00:40:56.342Z,932.70
2018-12-27T00:41:56.345Z,932.71
2018-12-27T00:42:56.339Z,932.67
2018-12-27T00:43:56.309Z,932.65
2018-12-27T00:44:56.364Z,932.63
2018-12-27T00:45:56.314Z,932.67
2018-12-27T00:46:56.280Z,932.67
2018-12-27T00:47:56.302Z,932.66
2018-12-27T00:48:56.287Z,932.69
2018-12-27T00:49:56.321Z,932.67
2018-12-27T00:50:56.275Z,932.58
2018-12-27T00:51:56.250Z,932.62
2018-12-27T00:52:56.262Z,932.63
2018-12-27T00:53:56.250Z,932.61
2018-12-27T00:54:56.222Z,932.58
2018-12-27T00:55:56.223Z,932.61
2018-12-27T00:56:56.239Z,932.64
2018-12-27T00:57:56.218Z,932.70
2018-12-27T00:58:56.204Z,932.66
2018-12-27T00:59:56.201Z,932.68
2018-12-27T01:00:56.187Z,932.69
2018-12-27T01:01:56.194Z,932.67
2018-12-27T01:02:56.167Z,932.68
2018-12-27T01:03:56.153Z,932.64
2018-12-27T01:04:56.146Z,932.60
2018-12-27T01:05:56.151Z,932.64
2018-12-27T01:06:56.146Z,932.63
2018-12-27T01:07:56.139Z,932.64
2018-12-27T01:08:56.147Z,932.65
2018-12-27T01:09:56.114Z,932.67
2018-12-27T01:10:56.157Z,932.70
2018-12-27T01:11:56.108Z,932.68
2018-12-27T01:12:56.092Z,932.70
2018-12-27T01:13:56.100Z,932.73
2018-12-27T01:14:56.078Z,932.69
2018-12-27T01:15:56.079Z,932.71
2018-12-27T01:16:56.072Z,932.76
2018-12-27T01:17:56.071Z,932.77
2018-12-27T01:18:56.028Z,932.80
2018-12-27T01:19:56.071Z,932.81
2018-12-27T01:20:56.028Z,932.81
2018-12-27T01:21:56.037Z,932.85
2018-12-27T01:22:56.022Z,932.87
2018-12-27T01:23:56.015Z,932.88
2018-12-27T01:24:55.993Z,932.89
2018-12-27T01:25:55.999Z,932.92
2018-12-27T01:26:55.989Z,932.91
2018-12-27T01:27:55.958Z,932.91
2018-12-27T01:28:55.979Z,932.91
2018-12-27T01:29:55.959Z,932.90
2018-12-27T01:30:57.076Z,932.90
2018-12-27T01:31:55.937Z,932.87
2018-12-27T01:32:55.938Z,932.86
2018-12-27T01:33:55.919Z,932.91
2018-12-27T01:34:55.929Z,932.87
2018-12-27T01:35:55.892Z,932.87
2018-12-27T01:36:55.937Z,932.91
2018-12-27T01:37:55.903Z,932.89
2018-12-27T01:38:55.899Z,932.90
2018-12-27T01:39:55.866Z,932.84
2018-12-27T01:40:55.858Z,932.84
2018-12-27T01:41:55.847Z,932.87
2018-12-27T01:42:55.845Z,932.86
2018-12-27T01:43:55.823Z,932.83
2018-12-27T01:44:57.323Z,932.84
2018-12-27T01:45:55.816Z,932.82
2018-12-27T01:46:55.834Z,932.85
2018-12-27T01:47:55.803Z,932.87
2018-12-27T01:48:55.806Z,932.87
2018-12-27T01:49:55.778Z,932.85
2018-12-27T01:50:55.780Z,932.86
2018-12-27T01:51:55.761Z,932.88
2018-12-27T01:52:55.760Z,932.89
2018-12-27T01:53:55.756Z,932.84
2018-12-27T01:54:55.742Z,932.86
2018-12-27T01:55:55.741Z,932.83
2018-12-27T01:56:55.717Z,932.85
2018-12-27T01:57:55.735Z,932.81
2018-12-27T01:58:55.738Z,932.79
2018-12-27T01:59:55.713Z,932.77
2018-12-27T02:00:55.683Z,932.75
2018-12-27T02:01:55.727Z,932.72
2018-12-27T02:02:55.679Z,932.67
2018-12-27T02:03:55.676Z,932.65
2018-12-27T02:04:55.666Z,932.65
2018-12-27T02:05:55.641Z,932.62
2018-12-27T02:06:55.651Z,932.64
2018-12-27T02:07:55.643Z,932.66
2018-12-27T02:08:55.634Z,932.63
2018-12-27T02:09:55.639Z,932.64
2018-12-27T02:10:55.632Z,932.63
2018-12-27T02:11:55.606Z,932.65
2018-12-27T02:12:55.694Z,932.62
2018-12-27T02:13:55.575Z,932.58
2018-12-27T02:14:55.570Z,932.62
2018-12-27T02:15:55.576Z,932.61
2018-12-27T02:16:55.575Z,932.60
2018-12-27T02:17:55.557Z,932.56
2018-12-27T02:18:55.546Z,932.57
2018-12-27T02:19:55.755Z,932.54
2018-12-27T02:20:55.568Z,932.54
2018-12-27T02:21:55.536Z,932.53
2018-12-27T02:22:55.525Z,932.51
2018-12-27T02:23:55.491Z,932.51
2018-12-27T02:24:55.517Z,932.50
2018-12-27T02:25:55.512Z,932.52
2018-12-27T02:26:55.541Z,932.50
2018-12-27T02:27:55.493Z,932.46
2018-12-27T02:28:55.457Z,932.45
2018-12-27T02:29:55.454Z,932.41
2018-12-27T02:30:55.443Z,932.42
2018-12-27T02:31:55.469Z,932.43
2018-12-27T02:32:55.452Z,932.43
2018-12-27T02:33:55.404Z,932.45
2018-12-27T02:34:55.426Z,932.43
2018-12-27T02:35:55.408Z,932.44
2018-12-27T02:36:55.422Z,932.37
2018-12-27T02:37:55.399Z,932.40
2018-12-27T02:38:55.390Z,932.41
2018-12-27T02:39:55.386Z,932.42
2018-12-27T02:40:55.392Z,932.40
2018-12-27T02:41:55.360Z,932.41
2018-12-27T02:42:55.355Z,932.36
2018-12-27T02:43:55.372Z,932.37
2018-12-27T02:44:55.338Z,932.30
2018-12-27T02:45:55.341Z,932.22
2018-12-27T02:46:55.322Z,932.22
2018-12-27T02:47:55.321Z,932.19
2018-12-27T02:48:55.397Z,932.19
2018-12-27T02:49:55.295Z,932.17
2018-12-27T02:50:55.306Z,932.14
2018-12-27T02:51:55.305Z,932.10
2018-12-27T02:52:55.354Z,932.08
2018-12-27T02:53:55.271Z,932.06
2018-12-27T02:54:55.261Z,932.06
2018-12-27T02:55:55.272Z,932.01
2018-12-27T02:56:55.238Z,932.02
2018-12-27T02:57:55.238Z,932.03
2018-12-27T02:58:55.237Z,932.02
2018-12-27T02:59:55.206Z,931.96
2018-12-27T03:00:55.215Z,931.95
2018-12-27T03:01:55.207Z,931.93
2018-12-27T03:02:55.217Z,931.96
2018-12-27T03:03:55.175Z,931.92
2018-12-27T03:04:55.179Z,931.93
2018-12-27T03:05:55.173Z,931.91
2018-12-27T03:06:55.182Z,931.86
2018-12-27T03:07:55.151Z,931.86
2018-12-27T03:08:55.196Z,931.86
2018-12-27T03:09:55.149Z,931.86
2018-12-27T03:10:55.133Z,931.85
2018-12-27T03:11:55.142Z,931.87
2018-12-27T03:12:55.113Z,931.84
2018-12-27T03:13:55.103Z,931.83
2018-12-27T03:14:55.149Z,931.83
2018-12-27T03:15:55.096Z,931.78
2018-12-27T03:16:55.071Z,931.82
2018-12-27T03:17:55.121Z,931.80
2018-12-27T03:18:55.081Z,931.81
2018-12-27T03:19:55.047Z,931.82
2018-12-27T03:20:55.059Z,931.84
2018-12-27T03:21:55.031Z,931.80
2018-12-27T03:22:55.074Z,931.81
2018-12-27T03:23:55.054Z,931.77
2018-12-27T03:24:55.029Z,931.77
2018-12-27T03:25:55.046Z,931.78
2018-12-27T03:26:54.997Z,931.74
2018-12-27T03:27:54.995Z,931.74
2018-12-27T03:28:54.985Z,931.75
2018-12-27T03:29:54.996Z,931.73
2018-12-27T03:30:54.957Z,931.69
2018-12-27T03:31:54.958Z,931.71
2018-12-27T03:32:54.998Z,931.65
2018-12-27T03:33:54.989Z,931.63
2018-12-27T03:34:54.938Z,931.60
2018-12-27T03:35:54.939Z,931.59
2018-12-27T03:36:54.911Z,931.59
2018-12-27T03:37:54.910Z,931.61
2018-12-27T03:38:54.896Z,931.63
2018-12-27T03:39:54.892Z,931.58
2018-12-27T03:40:54.899Z,931.58
2018-12-27T03:41:54.894Z,931.58
2018-12-27T03:42:54.863Z,931.55
2018-12-27T03:43:54.859Z,931.51
2018-12-27T03:44:54.887Z,931.43
2018-12-27T03:45:54.870Z,931.41
2018-12-27T03:46:54.842Z,931.40
2018-12-27T03:47:54.831Z,931.40
2018-12-27T03:48:54.840Z,931.36
2018-12-27T03:49:54.860Z,931.40
2018-12-27T03:50:54.822Z,931.33
2018-12-27T03:51:54.798Z,931.33
2018-12-27T03:52:54.799Z,931.33
2018-12-27T03:53:54.782Z,931.31
2018-12-27T03:54:54.759Z,931.28
2018-12-27T03:55:54.772Z,931.27
2018-12-27T03:56:54.810Z,931.25
2018-12-27T03:57:54.740Z,931.22
2018-12-27T03:58:54.799Z,931.26
2018-12-27T03:59:54.739Z,931.24
2018-12-27T04:00:54.736Z,931.24
2018-12-27T04:01:54.750Z,931.19
2018-12-27T04:02:54.705Z,931.24
2018-12-27T04:04:01.446Z,931.20
2018-12-27T04:04:54.949Z,931.17
2018-12-27T04:05:54.739Z,931.15
2018-12-27T04:06:54.691Z,931.14
2018-12-27T04:07:54.689Z,931.16
2018-12-27T04:08:54.679Z,931.14
2018-12-27T04:09:54.660Z,931.10
2018-12-27T04:10:54.668Z,931.09
2018-12-27T04:11:54.659Z,931.08
2018-12-27T04:12:54.676Z,931.07
2018-12-27T04:13:54.656Z,931.06
2018-12-27T04:14:54.635Z,931.02
2018-12-27T04:15:54.622Z,931.02
2018-12-27T04:16:54.606Z,931.01
2018-12-27T04:17:54.630Z,931.01
2018-12-27T04:18:54.623Z,931.02
2018-12-27T04:19:54.587Z,931.03
2018-12-27T04:20:54.572Z,930.97
2018-12-27T04:21:54.567Z,930.98
2018-12-27T04:22:54.576Z,930.95
2018-12-27T04:23:54.558Z,930.97
2018-12-27T04:24:54.555Z,930.93
2018-12-27T04:25:54.541Z,930.95
2018-12-27T04:26:54.519Z,930.96
2018-12-27T04:27:54.535Z,930.96
2018-12-27T04:28:54.524Z,930.93
2018-12-27T04:29:54.515Z,930.93
2018-12-27T04:30:54.507Z,930.89
2018-12-27T04:31:54.492Z,930.92
2018-12-27T04:32:54.478Z,930.85
2018-12-27T04:33:54.478Z,930.88
2018-12-27T04:34:54.468Z,930.84
2018-12-27T04:35:54.450Z,930.88
2018-12-27T04:36:54.453Z,930.86
2018-12-27T04:37:54.444Z,930.85
2018-12-27T04:38:54.452Z,930.83
2018-12-27T04:39:54.485Z,930.87
2018-12-27T04:40:54.433Z,930.86
2018-12-27T04:41:54.474Z,930.84
2018-12-27T04:42:54.417Z,930.83
2018-12-27T04:43:54.409Z,930.84
2018-12-27T04:44:54.392Z,930.84
2018-12-27T04:45:54.379Z,930.81
2018-12-27T04:46:54.389Z,930.85
2018-12-27T04:47:54.364Z,930.83
2018-12-27T04:48:54.350Z,930.80
2018-12-27T04:49:54.329Z,930.77
2018-12-27T04:50:54.342Z,930.76
2018-12-27T04:51:54.345Z,930.74
2018-12-27T04:52:54.342Z,930.69
2018-12-27T04:53:54.346Z,930.69
2018-12-27T04:54:54.365Z,930.65
2018-12-27T04:55:54.358Z,930.63
2018-12-27T04:56:54.357Z,930.66
2018-12-27T04:57:54.284Z,930.65
2018-12-27T04:58:54.285Z,930.66
2018-12-27T04:59:54.281Z,930.67
2018-12-27T05:00:54.264Z,930.69
2018-12-27T05:01:54.271Z,930.66
2018-12-27T05:02:54.257Z,930.67
2018-12-27T05:03:54.275Z,930.62
2018-12-27T05:04:54.232Z,930.59
2018-12-27T05:05:54.258Z,930.60
2018-12-27T05:06:54.207Z,930.57
2018-12-27T05:07:54.215Z,930.53
2018-12-27T05:08:54.204Z,930.56
2018-12-27T05:09:54.210Z,930.52
2018-12-27T05:10:54.196Z,930.48
2018-12-27T05:11:54.174Z,930.47
2018-12-27T05:12:54.172Z,930.40
2018-12-27T05:13:54.457Z,930.39
2018-12-27T05:14:54.150Z,930.36
2018-12-27T05:15:54.148Z,930.33
2018-12-27T05:16:54.123Z,930.34
2018-12-27T05:17:54.121Z,930.30
2018-12-27T05:18:54.129Z,930.29
2018-12-27T05:19:54.118Z,930.34
2018-12-27T05:20:54.132Z,930.32
2018-12-27T05:21:54.078Z,930.25
2018-12-27T05:22:54.078Z,930.27
2018-12-27T05:23:54.137Z,930.28
2018-12-27T05:24:54.062Z,930.26
2018-12-27T05:25:54.089Z,930.23
2018-12-27T05:26:54.052Z,930.22
2018-12-27T05:27:54.101Z,930.16
2018-12-27T05:28:54.041Z,930.15
2018-12-27T05:29:54.021Z,930.12
2018-12-27T05:30:54.031Z,930.05
2018-12-27T05:31:54.020Z,930.04
2018-12-27T05:32:54.019Z,930.00
2018-12-27T05:33:54.011Z,929.93
2018-12-27T05:34:54.007Z,929.92
2018-12-27T05:35:53.993Z,929.93
2018-12-27T05:36:53.964Z,930.00
2018-12-27T05:37:53.979Z,930.00
2018-12-27T05:38:53.961Z,930.04
2018-12-27T05:39:53.978Z,930.04
2018-12-27T05:40:53.933Z,930.05
2018-12-27T05:41:53.932Z,930.04
2018-12-27T05:42:54.197Z,930.03
2018-12-27T05:43:53.910Z,930.00
2018-12-27T05:44:53.919Z,929.98
2018-12-27T05:45:53.908Z,929.97
2018-12-27T05:46:53.904Z,929.97
2018-12-27T05:47:53.882Z,929.93
2018-12-27T05:48:53.888Z,930.00
2018-12-27T05:49:53.871Z,929.97
2018-12-27T05:50:53.862Z,929.96
2018-12-27T05:51:53.857Z,929.94
2018-12-27T05:52:53.839Z,929.96
2018-12-27T05:53:53.842Z,929.89
2018-12-27T05:54:53.835Z,929.92
2018-12-27T05:55:53.824Z,929.93
2018-12-27T05:56:53.814Z,929.91
2018-12-27T05:57:53.814Z,929.90
2018-12-27T05:58:53.800Z,929.93
2018-12-27T05:59:53.877Z,929.92
2018-12-27T06:00:53.772Z,929.97
2018-12-27T06:01:53.781Z,929.97
2018-12-27T06:02:53.780Z,929.95
2018-12-27T06:03:53.787Z,929.97
2018-12-27T06:04:53.812Z,929.97
2018-12-27T06:05:53.765Z,929.95
2018-12-27T06:06:53.715Z,929.94
2018-12-27T06:07:53.729Z,929.87
2018-12-27T06:08:53.713Z,929.82
2018-12-27T06:09:53.730Z,929.80
2018-12-27T06:10:53.751Z,929.83
2018-12-27T06:11:53.683Z,929.79
2018-12-27T06:12:53.690Z,929.77
2018-12-27T06:13:53.691Z,929.77
2018-12-27T06:14:53.672Z,929.82
2018-12-27T06:15:53.668Z,929.83
2018-12-27T06:16:53.665Z,929.85
2018-12-27T06:17:53.655Z,929.83
2018-12-27T06:18:53.645Z,929.83
2018-12-27T06:19:53.645Z,929.79
2018-12-27T06:20:53.599Z,929.80
2018-12-27T06:21:53.592Z,929.80
2018-12-27T06:22:53.624Z,929.85
2018-12-27T06:23:53.604Z,929.82
2018-12-27T06:24:53.582Z,929.83
2018-12-27T06:25:53.590Z,929.87
2018-12-27T06:26:53.582Z,929.86
2018-12-27T06:27:53.569Z,929.84
2018-12-27T06:28:53.571Z,929.85
2018-12-27T06:29:53.570Z,929.85
2018-12-27T06:30:53.527Z,929.88
2018-12-27T06:31:53.518Z,929.86
2018-12-27T06:32:53.565Z,929.90
2018-12-27T06:33:53.531Z,929.95
2018-12-27T06:34:53.524Z,929.91
2018-12-27T06:35:53.484Z,929.91
2018-12-27T06:36:53.467Z,929.93
2018-12-27T06:37:53.492Z,929.96
2018-12-27T06:38:53.463Z,929.93
2018-12-27T06:39:53.444Z,929.98
2018-12-27T06:40:53.449Z,930.00
2018-12-27T06:41:53.438Z,929.98
2018-12-27T06:42:53.442Z,929.99
2018-12-27T06:43:53.434Z,929.96
2018-12-27T06:44:53.431Z,930.02
2018-12-27T06:45:53.424Z,929.97
2018-12-27T06:46:53.427Z,929.96
2018-12-27T06:47:53.396Z,929.94
2018-12-27T06:48:53.377Z,929.93
2018-12-27T06:49:53.390Z,929.92
2018-12-27T06:50:53.374Z,929.89
2018-12-27T06:51:53.361Z,929.89
2018-12-27T06:52:53.378Z,929.94
2018-12-27T06:53:53.361Z,929.96
2018-12-27T06:54:53.343Z,929.97
2018-12-27T06:55:53.352Z,929.95
2018-12-27T06:56:53.491Z,929.97
2018-12-27T06:57:53.326Z,929.96
2018-12-27T06:58:53.289Z,929.97
2018-12-27T06:59:53.348Z,930.00
2018-12-27T07:00:53.315Z,930.02
2018-12-27T07:01:53.345Z,930.03
2018-12-27T07:02:53.283Z,930.07
2018-12-27T07:03:53.266Z,930.08
2018-12-27T07:04:53.261Z,930.14
2018-12-27T07:05:53.258Z,930.13
2018-12-27T07:06:53.291Z,930.12
2018-12-27T07:07:53.238Z,930.10
2018-12-27T07:08:53.222Z,930.16
2018-12-27T07:09:53.214Z,930.15
2018-12-27T07:10:53.208Z,930.15
2018-12-27T07:11:53.215Z,930.15
2018-12-27T07:12:53.213Z,930.15
2018-12-27T07:13:53.178Z,930.18
2018-12-27T07:14:53.176Z,930.18
2018-12-27T07:15:53.197Z,930.14
2018-12-27T07:16:53.146Z,930.12
2018-12-27T07:17:53.179Z,930.11
2018-12-27T07:18:53.203Z,930.07
2018-12-27T07:19:53.158Z,930.12
2018-12-27T07:20:53.133Z,930.12
2018-12-27T07:21:53.125Z,930.13
2018-12-27T07:22:53.134Z,930.11
2018-12-27T07:23:53.117Z,930.09
2018-12-27T07:24:53.097Z,930.10
2018-12-27T07:25:53.118Z,930.08
2018-12-27T07:26:53.077Z,930.08
2018-12-27T07:27:53.097Z,930.10
2018-12-27T07:28:53.062Z,930.08
2018-12-27T07:29:53.047Z,930.09
2018-12-27T07:30:53.042Z,930.13
2018-12-27T07:31:53.053Z,930.07
2018-12-27T07:32:53.072Z,930.11
2018-12-27T07:33:53.031Z,930.11
2018-12-27T07:34:56.383Z,930.17
2018-12-27T07:35:53.026Z,930.24
2018-12-27T07:36:53.008Z,930.25
2018-12-27T07:37:53.029Z,930.25
2018-12-27T07:38:52.988Z,930.28
2018-12-27T07:39:53.028Z,930.27
2018-12-27T07:40:52.969Z,930.28
2018-12-27T07:41:53.015Z,930.25
2018-12-27T07:42:52.998Z,930.21
2018-12-27T07:43:52.951Z,930.25
2018-12-27T07:44:52.953Z,930.24
2018-12-27T07:45:52.921Z,930.24
2018-12-27T07:46:53.043Z,930.20
2018-12-27T07:47:52.933Z,930.17
2018-12-27T07:48:52.927Z,930.19
2018-12-27T07:49:53.193Z,930.17
2018-12-27T07:50:52.902Z,930.22
2018-12-27T07:51:52.875Z,930.24
2018-12-27T07:52:52.918Z,930.23
2018-12-27T07:53:52.845Z,930.27
2018-12-27T07:54:52.865Z,930.27
2018-12-27T07:55:52.897Z,930.29
2018-12-27T07:56:52.827Z,930.28
2018-12-27T07:57:52.831Z,930.27
2018-12-27T07:58:52.830Z,930.32
2018-12-27T07:59:52.815Z,930.32
2018-12-27T08:00:53.097Z,930.35
2018-12-27T08:01:52.782Z,930.36
2018-12-27T08:02:52.843Z,930.36
2018-12-27T08:03:52.775Z,930.38
2018-12-27T08:04:52.763Z,930.37
2018-12-27T08:05:52.786Z,930.35
2018-12-27T08:06:52.785Z,930.39
2018-12-27T08:07:52.756Z,930.44
2018-12-27T08:08:52.723Z,930.49
2018-12-27T08:09:52.736Z,930.54
2018-12-27T08:10:52.713Z,930.56
2018-12-27T08:11:52.714Z,930.59
2018-12-27T08:12:52.724Z,930.61
2018-12-27T08:13:52.692Z,930.62
2018-12-27T08:14:52.681Z,930.65
2018-12-27T08:15:52.664Z,930.66
2018-12-27T08:16:52.670Z,930.69
2018-12-27T08:17:52.672Z,930.76
2018-12-27T08:18:52.665Z,930.78
2018-12-27T08:19:52.688Z,930.80
2018-12-27T08:20:52.646Z,930.86
2018-12-27T08:21:52.672Z,930.90
2018-12-27T08:22:52.649Z,930.88
2018-12-27T08:23:52.643Z,930.94
2018-12-27T08:24:52.623Z,930.92
2018-12-27T08:25:52.603Z,930.97
2018-12-27T08:26:52.608Z,930.97
2018-12-27T08:27:52.593Z,930.93
2018-12-27T08:28:52.589Z,930.93
2018-12-27T08:29:52.568Z,930.91
2018-12-27T08:30:52.577Z,930.89
2018-12-27T08:31:52.612Z,930.91
2018-12-27T08:32:52.552Z,930.91
2018-12-27T08:33:52.540Z,930.89
2018-12-27T08:34:52.527Z,930.88
2018-12-27T08:35:52.573Z,930.90
2018-12-27T08:36:52.542Z,930.89
2018-12-27T08:37:52.511Z,930.94
2018-12-27T08:38:52.476Z,930.94
2018-12-27T08:39:52.489Z,930.98
2018-12-27T08:40:52.483Z,931.04
2018-12-27T08:41:52.480Z,931.05
2018-12-27T08:42:52.460Z,931.06
2018-12-27T08:43:52.514Z,931.11
2018-12-27T08:44:52.473Z,931.09
2018-12-27T08:45:52.495Z,931.14
2018-12-27T08:46:52.433Z,931.16
2018-12-27T08:47:52.415Z,931.18
2018-12-27T08:48:52.410Z,931.16
2018-12-27T08:49:52.414Z,931.25
2018-12-27T08:50:52.393Z,931.31
2018-12-27T08:51:52.394Z,931.25
2018-12-27T08:52:52.394Z,931.29
2018-12-27T08:53:52.622Z,931.27
2018-12-27T08:54:52.375Z,931.21
2018-12-27T08:55:52.359Z,931.23
2018-12-27T08:56:52.362Z,931.22
2018-12-27T08:57:52.366Z,931.22
2018-12-27T08:58:52.354Z,931.21
2018-12-27T08:59:52.326Z,931.24
2018-12-27T09:00:52.340Z,931.25
2018-12-27T09:01:52.319Z,931.26
2018-12-27T09:02:52.292Z,931.23
2018-12-27T09:03:52.304Z,931.26
2018-12-27T09:04:52.299Z,931.27
2018-12-27T09:05:52.285Z,931.27
2018-12-27T09:06:52.295Z,931.25
2018-12-27T09:07:52.265Z,931.29
2018-12-27T09:08:52.259Z,931.24
2018-12-27T09:09:52.252Z,931.29
2018-12-27T09:10:52.238Z,931.28
2018-12-27T09:11:52.226Z,931.28
2018-12-27T09:12:52.218Z,931.26
2018-12-27T09:13:52.237Z,931.33
2018-12-27T09:14:52.208Z,931.34
2018-12-27T09:15:52.217Z,931.36
2018-12-27T09:16:52.210Z,931.37
2018-12-27T09:17:52.243Z,931.41
2018-12-27T09:18:52.181Z,931.43
2018-12-27T09:19:52.179Z,931.48
2018-12-27T09:20:52.168Z,931.52
2018-12-27T09:21:52.193Z,931.47
2018-12-27T09:22:52.132Z,931.48
2018-12-27T09:23:52.144Z,931.52
2018-12-27T09:24:52.145Z,931.50
2018-12-27T09:25:52.134Z,931.53
2018-12-27T09:26:52.107Z,931.53
2018-12-27T09:27:52.096Z,931.52
2018-12-27T09:28:52.082Z,931.53
2018-12-27T09:29:52.114Z,931.52
2018-12-27T09:30:52.068Z,931.51
2018-12-27T09:31:52.076Z,931.56
2018-12-27T09:32:52.058Z,931.54
2018-12-27T09:33:52.058Z,931.60
2018-12-27T09:34:52.099Z,931.56
2018-12-27T09:35:52.044Z,931.60
2018-12-27T09:36:52.052Z,931.60
2018-12-27T09:37:52.033Z,931.62
2018-12-27T09:38:52.024Z,931.63
2018-12-27T09:39:52.017Z,931.71
2018-12-27T09:40:52.021Z,931.68
2018-12-27T09:41:52.039Z,931.71
2018-12-27T09:42:52.001Z,931.72
2018-12-27T09:43:51.991Z,931.75
2018-12-27T09:44:52.003Z,931.74
2018-12-27T09:45:51.977Z,931.73
2018-12-27T09:46:51.952Z,931.72
2018-12-27T09:47:51.940Z,931.69
2018-12-27T09:48:51.964Z,931.67
2018-12-27T09:49:51.991Z,931.73
2018-12-27T09:50:51.944Z,931.70
2018-12-27T09:51:51.928Z,931.73
2018-12-27T09:52:51.933Z,931.73
2018-12-27T09:53:51.926Z,931.73
2018-12-27T09:54:51.896Z,931.77
2018-12-27T09:55:51.906Z,931.76
2018-12-27T09:56:51.900Z,931.72
2018-12-27T09:57:51.905Z,931.75
2018-12-27T09:58:51.865Z,931.69
2018-12-27T09:59:51.856Z,931.70
2018-12-27T10:00:51.848Z,931.66
2018-12-27T10:01:51.849Z,931.72
2018-12-27T10:02:51.829Z,931.72
2018-12-27T10:03:51.848Z,931.75
2018-12-27T10:04:51.869Z,931.74
2018-12-27T10:05:51.815Z,931.75
2018-12-27T10:06:51.799Z,931.79
2018-12-27T10:07:57.492Z,931.80
2018-12-27T10:08:51.794Z,931.81
2018-12-27T10:09:51.773Z,931.82
2018-12-27T10:10:51.779Z,931.82
2018-12-27T10:11:51.770Z,931.87
2018-12-27T10:12:51.791Z,931.85
2018-12-27T10:13:51.776Z,931.86
2018-12-27T10:14:51.754Z,931.86
2018-12-27T10:15:51.775Z,931.89
2018-12-27T10:16:51.766Z,931.92
2018-12-27T10:17:51.750Z,931.94
2018-12-27T10:18:51.715Z,931.91
2018-12-27T10:19:51.731Z,931.94
2018-12-27T10:20:51.812Z,931.92
2018-12-27T10:21:51.735Z,931.90
2018-12-27T10:22:51.713Z,931.94
2018-12-27T10:23:51.697Z,931.93
2018-12-27T10:24:52.006Z,931.94
2018-12-27T10:25:51.708Z,931.96
2018-12-27T10:26:51.687Z,931.95
2018-12-27T10:27:51.658Z,931.99
2018-12-27T10:28:51.709Z,932.01
2018-12-27T10:29:51.674Z,931.91
2018-12-27T10:30:51.673Z,931.96
2018-12-27T10:31:51.683Z,932.00
2018-12-27T10:32:51.644Z,932.02
2018-12-27T10:33:51.648Z,932.02
2018-12-27T10:34:51.601Z,931.97
2018-12-27T10:35:51.614Z,931.98
2018-12-27T10:36:51.646Z,931.94
2018-12-27T10:37:51.599Z,931.96
2018-12-27T10:38:51.603Z,932.00
2018-12-27T10:39:51.588Z,932.01
2018-12-27T10:40:51.581Z,932.02
2018-12-27T10:41:51.620Z,932.04
2018-12-27T10:42:51.563Z,932.03
2018-12-27T10:43:51.555Z,932.02
2018-12-27T10:44:51.568Z,932.07
2018-12-27T10:45:51.818Z,932.08
2018-12-27T10:46:51.560Z,932.12
2018-12-27T10:47:51.539Z,932.12
2018-12-27T10:48:51.533Z,932.09
2018-12-27T10:49:51.530Z,932.06
2018-12-27T10:50:51.528Z,932.07
2018-12-27T10:51:51.525Z,932.04
2018-12-27T10:52:51.502Z,932.07
2018-12-27T10:53:51.514Z,932.08
2018-12-27T10:54:51.488Z,932.08
2018-12-27T10:55:51.492Z,932.07
2018-12-27T10:56:51.475Z,932.06
2018-12-27T10:57:51.455Z,932.05
2018-12-27T10:58:51.458Z,932.06
2018-12-27T10:59:51.449Z,932.09
2018-12-27T11:00:51.449Z,932.06
2018-12-27T11:01:51.452Z,932.04
2018-12-27T11:02:51.427Z,932.05
2018-12-27T11:03:51.434Z,932.01
2018-12-27T11:04:51.426Z,931.98
2018-12-27T11:05:51.462Z,932.02
2018-12-27T11:06:51.396Z,932.08
2018-12-27T11:07:51.420Z,932.06
2018-12-27T11:08:51.389Z,932.06
2018-12-27T11:09:51.416Z,932.06
2018-12-27T11:10:51.438Z,932.06
2018-12-27T11:11:51.388Z,932.06
2018-12-27T11:12:51.384Z,932.07
2018-12-27T11:13:51.378Z,932.05
2018-12-27T11:14:51.365Z,932.03
2018-12-27T11:15:51.418Z,932.04
2018-12-27T11:16:51.368Z,932.07
2018-12-27T11:17:51.335Z,932.08
2018-12-27T11:18:51.329Z,932.07
2018-12-27T11:19:51.323Z,932.12
2018-12-27T11:20:51.344Z,932.07
2018-12-27T11:21:51.329Z,932.07
2018-12-27T11:22:51.327Z,932.09
2018-12-27T11:23:51.293Z,932.04
2018-12-27T11:24:51.302Z,932.02
2018-12-27T11:25:51.307Z,932.04
2018-12-27T11:26:51.301Z,932.04
2018-12-27T11:27:51.286Z,932.02
2018-12-27T11:28:51.285Z,932.05
2018-12-27T11:29:51.290Z,932.05
2018-12-27T11:30:51.280Z,932.09
2018-12-27T11:31:51.266Z,932.08
2018-12-27T11:32:51.247Z,932.10
2018-12-27T11:33:51.241Z,932.09
2018-12-27T11:34:51.257Z,932.10
2018-12-27T11:35:55.800Z,932.09
2018-12-27T11:36:51.248Z,932.08
2018-12-27T11:37:51.240Z,932.05
2018-12-27T11:38:51.223Z,932.07
2018-12-27T11:39:51.237Z,932.06
2018-12-27T11:40:51.499Z,932.11
2018-12-27T11:41:51.219Z,932.08
2018-12-27T11:42:51.188Z,932.07
2018-12-27T11:43:51.201Z,932.09
2018-12-27T11:44:51.200Z,932.12
2018-12-27T11:45:51.202Z,932.15
2018-12-27T11:46:51.177Z,932.13
2018-12-27T11:47:51.227Z,932.10
2018-12-27T11:48:51.181Z,932.11
2018-12-27T11:49:51.176Z,932.08
2018-12-27T11:50:51.172Z,932.08
2018-12-27T11:51:51.164Z,932.10
2018-12-27T11:52:51.162Z,932.10
2018-12-27T11:53:51.167Z,932.10
2018-12-27T11:54:51.165Z,932.10
2018-12-27T11:55:51.132Z,932.12
2018-12-27T11:56:51.169Z,932.10
2018-12-27T11:57:51.341Z,932.11
2018-12-27T11:58:51.142Z,932.11
2018-12-27T11:59:51.146Z,932.10
2018-12-27T12:00:51.098Z,932.08
2018-12-27T12:01:51.083Z,932.11
2018-12-27T12:02:51.124Z,932.08
2018-12-27T12:03:51.114Z,932.10
2018-12-27T12:04:51.135Z,932.06
2018-12-27T12:05:51.090Z,932.07
2018-12-27T12:06:51.064Z,932.05
2018-12-27T12:07:51.079Z,932.13
2018-12-27T12:08:51.047Z,932.14
2018-12-27T12:09:51.073Z,932.13
2018-12-27T12:10:51.063Z,932.18
2018-12-27T12:11:51.077Z,932.19
2018-12-27T12:12:51.046Z,932.19
2018-12-27T12:13:51.051Z,932.22
2018-12-27T12:14:51.028Z,932.21
2018-12-27T12:15:51.037Z,932.22
2018-12-27T12:16:51.045Z,932.21
2018-12-27T12:17:51.031Z,932.26
2018-12-27T12:18:51.015Z,932.25
2018-12-27T12:19:51.002Z,932.21
2018-12-27T12:20:51.011Z,932.19
2018-12-27T12:21:51.012Z,932.21
2018-12-27T12:22:51.001Z,932.25
2018-12-27T12:23:51.001Z,932.22
2018-12-27T12:24:51.002Z,932.18
2018-12-27T12:25:50.976Z,932.18
2018-12-27T12:26:50.986Z,932.16
2018-12-27T12:27:50.970Z,932.16
2018-12-27T12:28:50.969Z,932.18